createdAt,value
2019-04-12T00:00:47.930Z,1012.11
2019-04-12T00:01:47.913Z,1012.10
2019-04-12T00:02:47.903Z,1012.14
2019-04-12T00:03:47.878Z,1012.14
2019-04-12T00:04:47.886Z,1012.09
2019-04-12T00:05:47.839Z,1012.14
2019-04-12T00:06:47.822Z,1012.13
2019-04-12T00:07:47.799Z,1012.14
2019-04-12T00:08:47.792Z,1012.10
2019-04-12T00:09:47.800Z,1012.14
2019-04-12T00:10:47.749Z,1012.13
2019-04-12T00:11:47.728Z,1012.08
2019-04-12T00:12:47.717Z,1012.08
2019-04-12T00:13:47.699Z,1012.10
2019-04-12T00:14:47.706Z,1012.08
2019-04-12T00:15:47.689Z,1012.09
2019-04-12T00:16:47.643Z,1012.10
2019-04-12T00:17:47.630Z,1012.09
2019-04-12T00:18:47.603Z,1012.12
2019-04-12T00:19:47.598Z,1012.09
2019-04-12T00:20:47.593Z,1012.10
2019-04-12T00:21:47.561Z,1012.11
2019-04-12T00:22:47.551Z,1012.09
2019-04-12T00:23:47.520Z,1012.12
2019-04-12T00:24:47.795Z,1012.09
2019-04-12T00:25:48.083Z,1012.09
2019-04-12T00:26:49.211Z,1012.04
2019-04-12T00:27:48.965Z,1012.06
2019-04-12T00:28:49.927Z,1012.05
2019-04-12T00:29:50.883Z,1012.05
2019-04-12T00:30:51.175Z,1012.08
2019-04-12T00:31:47.377Z,1012.08
2019-04-12T00:32:49.042Z,1012.07
2019-04-12T00:33:47.332Z,1012.07
2019-04-12T00:34:47.312Z,1012.09
2019-04-12T00:35:49.008Z,1012.10
2019-04-12T00:36:47.286Z,1012.07
2019-04-12T00:37:47.291Z,1012.07
2019-04-12T00:38:47.242Z,1012.11
2019-04-12T00:39:47.228Z,1012.07
2019-04-12T00:40:47.210Z,1012.09
2019-04-12T00:41:47.240Z,1012.09
2019-04-12T00:42:47.174Z,1012.08
2019-04-12T00:43:47.159Z,1012.09
2019-04-12T00:44:47.139Z,1012.09
2019-04-12T00:45:47.120Z,1012.08
2019-04-12T00:46:47.100Z,1012.10
2019-04-12T00:47:47.114Z,1012.07
2019-04-12T00:48:47.072Z,1012.07
2019-04-12T00:49:47.042Z,1012.07
2019-04-12T00:50:47.032Z,1012.06
2019-04-12T00:51:47.009Z,1012.06
2019-04-12T00:52:47.039Z,1012.09
2019-04-12T00:53:46.970Z,1012.03
2019-04-12T00:54:50.170Z,1012.07
2019-04-12T00:55:48.355Z,1012.09
2019-04-12T00:56:47.599Z,1012.06
2019-04-12T00:57:46.898Z,1012.10
2019-04-12T00:58:47.098Z,1012.06
2019-04-12T00:59:47.509Z,1012.12
2019-04-12T01:00:48.297Z,1012.05
2019-04-12T01:01:47.469Z,1012.05
2019-04-12T01:02:46.882Z,1012.08
2019-04-12T01:03:46.803Z,1012.04
2019-04-12T01:04:47.299Z,1012.05
2019-04-12T01:07:20.016Z,1012.04
2019-04-12T01:08:20.734Z,1012.07
2019-04-12T01:09:21.942Z,1012.01
2019-04-12T01:10:20.915Z,1012.04
2019-04-12T01:11:18.521Z,1012.03
2019-04-12T01:12:18.501Z,1012.01
2019-04-12T01:13:18.486Z,1012.01
2019-04-12T01:14:18.464Z,1012.03
2019-04-12T01:15:18.450Z,1012.05
2019-04-12T01:16:18.432Z,1012.04
2019-04-12T01:17:18.412Z,1012.07
2019-04-12T01:18:18.399Z,1012.04
2019-04-12T01:19:18.377Z,1012.07
2019-04-12T01:20:18.383Z,1012.08
2019-04-12T01:21:18.336Z,1012.08
2019-04-12T01:22:18.378Z,1012.08
2019-04-12T01:23:18.300Z,1012.06
2019-04-12T01:24:18.283Z,1012.05
2019-04-12T01:25:18.259Z,1012.08
2019-04-12T01:26:18.246Z,1012.08
2019-04-12T01:27:18.227Z,1012.07
2019-04-12T01:28:18.752Z,1012.04
2019-04-12T01:29:18.638Z,1012.03
2019-04-12T01:30:18.172Z,1012.09
2019-04-12T01:31:18.156Z,1012.10
2019-04-12T01:32:18.145Z,1012.06
2019-04-12T01:33:18.149Z,1012.07
2019-04-12T01:34:18.116Z,1012.10
2019-04-12T01:35:18.080Z,1012.10
2019-04-12T01:36:18.060Z,1012.08
2019-04-12T01:37:18.100Z,1012.08
2019-04-12T01:38:18.021Z,1012.10
2019-04-12T01:39:18.004Z,1012.06
2019-04-12T01:40:17.993Z,1012.06
2019-04-12T01:41:17.969Z,1012.05
2019-04-12T01:42:17.962Z,1012.10
2019-04-12T01:43:17.944Z,1012.09
2019-04-12T01:44:17.917Z,1012.06
2019-04-12T01:45:17.897Z,1012.08
2019-04-12T01:46:17.889Z,1012.02
2019-04-12T01:47:17.867Z,1012.06
2019-04-12T01:48:17.866Z,1012.07
2019-04-12T01:49:17.825Z,1012.05
2019-04-12T01:50:17.809Z,1012.03
2019-04-12T01:51:17.794Z,1012.08
2019-04-12T01:52:17.774Z,1012.12
2019-04-12T01:53:17.822Z,1012.16
2019-04-12T01:54:17.733Z,1012.11
2019-04-12T01:55:17.711Z,1012.14
2019-04-12T01:56:17.696Z,1012.12
2019-04-12T01:57:17.681Z,1012.14
2019-04-12T01:58:17.665Z,1012.10
2019-04-12T01:59:17.679Z,1012.10
2019-04-12T02:00:17.622Z,1012.09
2019-04-12T02:01:17.612Z,1012.09
2019-04-12T02:02:17.586Z,1012.03
2019-04-12T02:03:17.574Z,1012.07
2019-04-12T02:04:17.576Z,1012.03
2019-04-12T02:05:19.297Z,1012.01
2019-04-12T02:06:17.515Z,1012.00
2019-04-12T02:07:17.498Z,1012.00
2019-04-12T02:08:17.484Z,1012.00
2019-04-12T02:09:17.525Z,1012.00
2019-04-12T02:10:17.447Z,1011.98
2019-04-12T02:11:17.419Z,1011.98
2019-04-12T02:12:17.404Z,1012.01
2019-04-12T02:13:17.388Z,1011.98
2019-04-12T02:14:17.368Z,1012.01
2019-04-12T02:15:17.357Z,1011.98
2019-04-12T02:16:17.335Z,1012.01
2019-04-12T02:17:17.318Z,1011.99
2019-04-12T02:18:17.315Z,1012.00
2019-04-12T02:19:17.284Z,1012.01
2019-04-12T02:20:17.310Z,1012.00
2019-04-12T02:21:17.246Z,1012.02
2019-04-12T02:22:17.222Z,1011.99
2019-04-12T02:23:17.203Z,1012.04
2019-04-12T02:24:17.187Z,1012.02
2019-04-12T02:25:21.376Z,1012.00
2019-04-12T02:26:17.175Z,1011.99
2019-04-12T02:27:17.124Z,1011.98
2019-04-12T02:28:17.138Z,1011.99
2019-04-12T02:29:17.093Z,1011.99
2019-04-12T02:30:17.077Z,1012.00
2019-04-12T02:31:17.053Z,1011.96
2019-04-12T02:32:17.048Z,1011.93
2019-04-12T02:33:17.023Z,1011.98
2019-04-12T02:34:17.003Z,1011.96
2019-04-12T02:35:16.981Z,1012.01
2019-04-12T02:36:16.975Z,1011.95
2019-04-12T02:37:16.951Z,1011.95
2019-04-12T02:38:16.929Z,1012.01
2019-04-12T02:39:16.909Z,1011.98
2019-04-12T02:40:16.888Z,1011.95
2019-04-12T02:41:16.870Z,1011.98
2019-04-12T02:42:16.860Z,1011.99
2019-04-12T02:43:16.866Z,1011.96
2019-04-12T02:44:16.816Z,1011.98
2019-04-12T02:45:16.805Z,1011.98
2019-04-12T02:46:16.789Z,1011.98
2019-04-12T02:47:16.765Z,1011.96
2019-04-12T02:48:16.758Z,1011.97
2019-04-12T02:49:16.728Z,1011.94
2019-04-12T02:50:16.708Z,1011.95
2019-04-12T02:51:16.693Z,1011.95
2019-04-12T02:52:16.680Z,1011.94
2019-04-12T02:53:16.685Z,1011.94
2019-04-12T02:54:16.637Z,1011.90
2019-04-12T02:55:16.639Z,1011.92
2019-04-12T02:56:16.603Z,1011.93
2019-04-12T02:57:16.575Z,1011.95
2019-04-12T02:58:16.619Z,1011.90
2019-04-12T02:59:16.552Z,1011.96
2019-04-12T03:00:16.527Z,1011.95
2019-04-12T03:01:16.505Z,1011.94
2019-04-12T03:02:16.482Z,1011.97
2019-04-12T03:03:16.472Z,1011.92
2019-04-12T03:04:16.450Z,1011.94
2019-04-12T03:05:16.436Z,1011.94
2019-04-12T03:06:16.411Z,1011.93
2019-04-12T03:07:16.398Z,1011.95
2019-04-12T03:08:16.421Z,1011.94
2019-04-12T03:09:16.361Z,1011.97
2019-04-12T03:10:16.337Z,1011.97
2019-04-12T03:11:16.328Z,1011.94
2019-04-12T03:12:16.302Z,1011.96
2019-04-12T03:13:16.286Z,1011.98
2019-04-12T03:14:16.279Z,1011.98
2019-04-12T03:15:16.248Z,1011.96
2019-04-12T03:16:16.237Z,1012.03
2019-04-12T03:17:16.214Z,1012.01
2019-04-12T03:18:16.195Z,1012.02
2019-04-12T03:19:16.211Z,1012.03
2019-04-12T03:20:16.204Z,1012.00
2019-04-12T03:21:16.134Z,1012.06
2019-04-12T03:22:16.120Z,1011.98
2019-04-12T03:23:16.101Z,1012.02
2019-04-12T03:24:16.089Z,1012.06
2019-04-12T03:25:16.066Z,1012.02
2019-04-12T03:26:16.066Z,1012.01
2019-04-12T03:27:16.026Z,1012.00
2019-04-12T03:28:16.009Z,1011.98
2019-04-12T03:29:15.991Z,1012.03
2019-04-12T03:30:15.987Z,1012.03
2019-04-12T03:31:15.990Z,1011.99
2019-04-12T03:32:15.948Z,1012.01
2019-04-12T03:33:15.946Z,1012.02
2019-04-12T03:34:15.891Z,1012.00
2019-04-12T03:35:15.871Z,1012.02
2019-04-12T03:36:15.881Z,1012.00
2019-04-12T03:37:15.840Z,1012.00
2019-04-12T03:38:15.825Z,1012.01
2019-04-12T03:39:15.843Z,1012.01
2019-04-12T03:40:15.786Z,1012.02
2019-04-12T03:41:15.793Z,1011.98
2019-04-12T03:42:15.744Z,1012.04
2019-04-12T03:43:15.748Z,1012.08
2019-04-12T03:44:15.719Z,1012.05
2019-04-12T03:45:15.689Z,1012.03
2019-04-12T03:46:15.695Z,1012.09
2019-04-12T03:47:15.657Z,1012.08
2019-04-12T03:48:15.629Z,1012.10
2019-04-12T03:49:15.622Z,1012.06
2019-04-12T03:50:15.638Z,1012.12
2019-04-12T03:51:15.591Z,1012.09
2019-04-12T03:52:15.557Z,1012.09
2019-04-12T03:53:15.542Z,1012.08
2019-04-12T03:54:15.519Z,1012.12
2019-04-12T03:55:15.499Z,1012.05
2019-04-12T03:56:15.550Z,1012.04
2019-04-12T03:57:15.483Z,1012.04
2019-04-12T03:58:15.444Z,1012.06
2019-04-12T03:59:15.427Z,1012.06
2019-04-12T04:00:15.413Z,1012.05
2019-04-12T04:01:15.389Z,1012.05
2019-04-12T04:02:15.384Z,1012.07
2019-04-12T04:03:15.411Z,1012.04
2019-04-12T04:04:15.336Z,1012.05
2019-04-12T04:05:15.326Z,1012.04
2019-04-12T04:06:15.291Z,1012.04
2019-04-12T04:07:15.290Z,1012.05
2019-04-12T04:08:15.258Z,1012.05
2019-04-12T04:09:15.272Z,1012.03
2019-04-12T04:10:15.224Z,1012.03
2019-04-12T04:11:15.209Z,1012.02
2019-04-12T04:12:15.194Z,1012.02
2019-04-12T04:13:15.197Z,1012.03
2019-04-12T04:14:15.178Z,1012.01
2019-04-12T04:15:15.124Z,1012.01
2019-04-12T04:16:15.109Z,1012.03
2019-04-12T04:17:15.144Z,1012.01
2019-04-12T04:18:15.076Z,1012.06
2019-04-12T04:19:15.085Z,1012.05
2019-04-12T04:20:15.039Z,1012.05
2019-04-12T04:21:15.025Z,1012.07
2019-04-12T04:22:15.062Z,1012.05
2019-04-12T04:23:14.983Z,1012.06
2019-04-12T04:24:15.002Z,1012.06
2019-04-12T04:25:14.947Z,1012.09
2019-04-12T04:26:23.134Z,1012.06
2019-04-12T04:27:14.910Z,1012.07
2019-04-12T04:28:14.948Z,1012.07
2019-04-12T04:29:14.903Z,1012.07
2019-04-12T04:30:14.846Z,1012.06
2019-04-12T04:31:14.834Z,1012.11
2019-04-12T04:32:14.814Z,1012.06
2019-04-12T04:33:14.795Z,1012.08
2019-04-12T04:34:14.806Z,1012.11
2019-04-12T04:35:14.791Z,1012.06
2019-04-12T04:36:14.741Z,1012.08
2019-04-12T04:37:14.718Z,1012.07
2019-04-12T04:38:14.701Z,1012.07
2019-04-12T04:39:14.681Z,1012.08
2019-04-12T04:40:14.687Z,1012.07
2019-04-12T04:41:14.649Z,1012.06
2019-04-12T04:42:14.620Z,1012.09
2019-04-12T04:43:14.603Z,1012.07
2019-04-12T04:44:17.806Z,1012.11
2019-04-12T04:45:14.624Z,1012.11
2019-04-12T04:46:14.549Z,1012.13
2019-04-12T04:47:14.533Z,1012.13
2019-04-12T04:48:14.519Z,1012.09
2019-04-12T04:49:14.496Z,1012.15
2019-04-12T04:50:14.477Z,1012.12
2019-04-12T04:51:14.455Z,1012.13
2019-04-12T04:52:16.478Z,1012.12
2019-04-12T04:53:14.424Z,1012.11
2019-04-12T04:54:14.400Z,1012.14
2019-04-12T04:55:14.378Z,1012.12
2019-04-12T04:56:14.384Z,1012.14
2019-04-12T04:57:14.374Z,1012.15
2019-04-12T04:58:14.322Z,1012.15
2019-04-12T04:59:14.303Z,1012.17
2019-04-12T05:00:14.283Z,1012.18
2019-04-12T05:01:14.260Z,1012.22
2019-04-12T05:02:14.272Z,1012.21
2019-04-12T05:03:14.233Z,1012.17
2019-04-12T05:04:14.209Z,1012.19
2019-04-12T05:05:14.194Z,1012.19
2019-04-12T05:06:14.166Z,1012.17
2019-04-12T05:07:14.175Z,1012.18
2019-04-12T05:08:14.168Z,1012.19
2019-04-12T05:09:14.114Z,1012.20
2019-04-12T05:10:14.097Z,1012.19
2019-04-12T05:11:14.077Z,1012.19
2019-04-12T05:12:14.061Z,1012.23
2019-04-12T05:13:14.066Z,1012.20
2019-04-12T05:14:14.025Z,1012.19
2019-04-12T05:15:14.007Z,1012.21
2019-04-12T05:16:13.980Z,1012.25
2019-04-12T05:17:13.965Z,1012.23
2019-04-12T05:18:13.978Z,1012.24
2019-04-12T05:19:13.946Z,1012.25
2019-04-12T05:20:13.913Z,1012.26
2019-04-12T05:21:13.895Z,1012.24
2019-04-12T05:22:13.948Z,1012.30
2019-04-12T05:23:13.853Z,1012.29
2019-04-12T05:24:13.833Z,1012.27
2019-04-12T05:25:13.816Z,1012.26
2019-04-12T05:26:13.793Z,1012.28
2019-04-12T05:27:13.779Z,1012.25
2019-04-12T05:28:13.787Z,1012.29
2019-04-12T05:29:13.742Z,1012.26
2019-04-12T05:30:13.714Z,1012.32
2019-04-12T05:31:13.701Z,1012.29
2019-04-12T05:32:13.713Z,1012.28
2019-04-12T05:33:13.662Z,1012.32
2019-04-12T05:34:13.639Z,1012.35
2019-04-12T05:35:13.627Z,1012.39
2019-04-12T05:36:13.618Z,1012.37
2019-04-12T05:37:13.584Z,1012.41
2019-04-12T05:38:13.569Z,1012.38
2019-04-12T05:39:13.556Z,1012.41
2019-04-12T05:40:13.537Z,1012.43
2019-04-12T05:41:13.510Z,1012.40
2019-04-12T05:42:13.496Z,1012.45
2019-04-12T05:43:13.474Z,1012.48
2019-04-12T05:44:13.479Z,1012.48
2019-04-12T05:45:13.443Z,1012.43
2019-04-12T05:46:13.418Z,1012.46
2019-04-12T05:47:13.416Z,1012.46
2019-04-12T05:48:13.377Z,1012.38
2019-04-12T05:49:13.408Z,1012.45
2019-04-12T05:50:13.345Z,1012.45
2019-04-12T05:51:13.322Z,1012.50
2019-04-12T05:52:13.451Z,1012.48
2019-04-12T05:53:13.285Z,1012.51
2019-04-12T05:54:13.263Z,1012.52
2019-04-12T05:55:13.270Z,1012.51
2019-04-12T05:56:13.231Z,1012.53
2019-04-12T05:57:13.210Z,1012.55
2019-04-12T05:58:13.350Z,1012.53
2019-04-12T05:59:13.238Z,1012.52
2019-04-12T06:00:14.313Z,1012.50
2019-04-12T06:01:16.691Z,1012.53
2019-04-12T06:02:13.122Z,1012.47
2019-04-12T06:03:13.095Z,1012.52
2019-04-12T06:04:13.083Z,1012.50
2019-04-12T06:05:13.106Z,1012.49
2019-04-12T06:06:13.040Z,1012.54
2019-04-12T06:07:13.030Z,1012.52
2019-04-12T06:08:12.997Z,1012.53
2019-04-12T06:09:12.981Z,1012.58
2019-04-12T06:10:12.968Z,1012.58
2019-04-12T06:11:12.969Z,1012.57
2019-04-12T06:12:12.930Z,1012.61
2019-04-12T06:13:12.906Z,1012.58
2019-04-12T06:14:12.885Z,1012.58
2019-04-12T06:15:12.895Z,1012.60
2019-04-12T06:16:13.043Z,1012.59
2019-04-12T06:17:12.839Z,1012.61
2019-04-12T06:18:12.869Z,1012.64
2019-04-12T06:19:12.792Z,1012.62
2019-04-12T06:20:12.811Z,1012.61
2019-04-12T06:21:12.767Z,1012.65
2019-04-12T06:22:12.739Z,1012.62
2019-04-12T06:23:12.737Z,1012.64
2019-04-12T06:24:12.704Z,1012.64
2019-04-12T06:25:12.712Z,1012.65
2019-04-12T06:26:12.668Z,1012.65
2019-04-12T06:27:12.655Z,1012.65
2019-04-12T06:28:12.636Z,1012.63
2019-04-12T06:29:12.606Z,1012.68
2019-04-12T06:30:12.618Z,1012.68
2019-04-12T06:31:12.617Z,1012.71
2019-04-12T06:32:12.555Z,1012.67
2019-04-12T06:33:12.536Z,1012.69
2019-04-12T06:34:12.515Z,1012.67
2019-04-12T06:35:12.497Z,1012.70
2019-04-12T06:36:12.506Z,1012.70
2019-04-12T06:37:12.470Z,1012.72
2019-04-12T06:38:12.450Z,1012.71
2019-04-12T06:39:12.430Z,1012.69
2019-04-12T06:40:12.414Z,1012.70
2019-04-12T06:41:13.145Z,1012.71
2019-04-12T06:42:12.368Z,1012.75
2019-04-12T06:43:12.354Z,1012.75
2019-04-12T06:44:12.331Z,1012.73
2019-04-12T06:45:12.320Z,1012.70
2019-04-12T06:46:12.358Z,1012.72
2019-04-12T06:47:14.575Z,1012.72
2019-04-12T06:48:12.261Z,1012.74
2019-04-12T06:49:12.241Z,1012.72
2019-04-12T06:50:12.236Z,1012.67
2019-04-12T06:51:12.201Z,1012.71
2019-04-12T06:52:12.207Z,1012.72
2019-04-12T06:53:12.169Z,1012.69
2019-04-12T06:54:12.150Z,1012.69
2019-04-12T06:55:12.140Z,1012.70
2019-04-12T06:56:12.123Z,1012.70
2019-04-12T06:57:21.970Z,1012.70
2019-04-12T06:58:12.102Z,1012.68
2019-04-12T06:59:12.135Z,1012.70
2019-04-12T07:00:12.111Z,1012.69
2019-04-12T07:01:12.026Z,1012.66
2019-04-12T07:02:12.011Z,1012.66
2019-04-12T07:03:12.001Z,1012.67
2019-04-12T07:04:11.968Z,1012.60
2019-04-12T07:05:11.961Z,1012.67
2019-04-12T07:06:11.935Z,1012.66
2019-04-12T07:07:11.918Z,1012.62
2019-04-12T07:08:11.984Z,1012.65
2019-04-12T07:09:11.967Z,1012.65
2019-04-12T07:10:11.867Z,1012.61
2019-04-12T07:11:11.843Z,1012.61
2019-04-12T07:12:11.824Z,1012.62
2019-04-12T07:13:11.810Z,1012.61
2019-04-12T07:14:11.796Z,1012.64
2019-04-12T07:15:11.798Z,1012.67
2019-04-12T07:16:11.762Z,1012.64
2019-04-12T07:17:11.744Z,1012.63
2019-04-12T07:18:11.721Z,1012.66
2019-04-12T07:19:11.755Z,1012.65
2019-04-12T07:20:11.682Z,1012.65
2019-04-12T07:21:11.668Z,1012.67
2019-04-12T07:22:11.652Z,1012.62
2019-04-12T07:23:11.640Z,1012.63
2019-04-12T07:24:11.613Z,1012.59
2019-04-12T07:25:11.621Z,1012.62
2019-04-12T07:26:11.583Z,1012.61
2019-04-12T07:27:11.559Z,1012.58
2019-04-12T07:28:11.549Z,1012.55
2019-04-12T07:29:11.549Z,1012.56
2019-04-12T07:30:11.505Z,1012.56
2019-04-12T07:31:11.488Z,1012.55
2019-04-12T07:32:11.478Z,1012.61
2019-04-12T07:33:11.449Z,1012.62
2019-04-12T07:34:11.463Z,1012.68
2019-04-12T07:35:11.439Z,1012.66
2019-04-12T07:36:11.435Z,1012.61
2019-04-12T07:37:11.390Z,1012.59
2019-04-12T07:38:11.362Z,1012.61
2019-04-12T07:39:11.356Z,1012.59
2019-04-12T07:40:11.343Z,1012.69
2019-04-12T07:41:11.376Z,1012.60
2019-04-12T07:42:11.301Z,1012.65
2019-04-12T07:43:11.289Z,1012.65
2019-04-12T07:44:11.270Z,1012.60
2019-04-12T07:45:11.255Z,1012.69
2019-04-12T07:46:11.234Z,1012.67
2019-04-12T07:47:11.248Z,1012.62
2019-04-12T07:48:11.202Z,1012.63
2019-04-12T07:49:11.193Z,1012.59
2019-04-12T07:50:11.162Z,1012.62
2019-04-12T07:51:11.175Z,1012.61
2019-04-12T07:52:11.141Z,1012.61
2019-04-12T07:53:11.125Z,1012.60
2019-04-12T07:54:11.101Z,1012.60
2019-04-12T07:55:11.083Z,1012.63
2019-04-12T07:56:11.087Z,1012.60
2019-04-12T07:57:11.107Z,1012.62
2019-04-12T07:58:11.029Z,1012.57
2019-04-12T07:59:11.169Z,1012.65
2019-04-12T08:00:11.002Z,1012.65
2019-04-12T08:01:10.988Z,1012.65
2019-04-12T08:02:11.003Z,1012.63
2019-04-12T08:03:10.979Z,1012.63
2019-04-12T08:04:10.938Z,1012.64
2019-04-12T08:05:10.919Z,1012.70
2019-04-12T08:06:10.901Z,1012.69
2019-04-12T08:07:10.886Z,1012.68
2019-04-12T08:08:10.939Z,1012.67
2019-04-12T08:09:10.849Z,1012.62
2019-04-12T08:10:10.839Z,1012.62
2019-04-12T08:11:10.827Z,1012.64
2019-04-12T08:12:10.799Z,1012.72
2019-04-12T08:13:10.937Z,1012.70
2019-04-12T08:14:10.799Z,1012.68
2019-04-12T08:15:13.302Z,1012.70
2019-04-12T08:16:11.717Z,1012.68
2019-04-12T08:17:11.688Z,1012.68
2019-04-12T08:18:10.704Z,1012.63
2019-04-12T08:19:10.711Z,1012.60
2019-04-12T08:20:10.673Z,1012.66
2019-04-12T08:21:10.657Z,1012.70
2019-04-12T08:22:10.631Z,1012.71
2019-04-12T08:23:10.620Z,1012.71
2019-04-12T08:24:10.623Z,1012.76
2019-04-12T08:25:11.160Z,1012.73
2019-04-12T08:26:10.663Z,1012.70
2019-04-12T08:27:10.571Z,1012.69
2019-04-12T08:28:10.569Z,1012.73
2019-04-12T08:29:10.635Z,1012.69
2019-04-12T08:30:10.537Z,1012.70
2019-04-12T08:31:10.483Z,1012.74
2019-04-12T08:32:10.468Z,1012.75
2019-04-12T08:33:10.471Z,1012.74
2019-04-12T08:34:10.433Z,1012.72
2019-04-12T08:35:11.818Z,1012.77
2019-04-12T08:36:10.484Z,1012.78
2019-04-12T08:37:10.379Z,1012.82
2019-04-12T08:38:10.364Z,1012.80
2019-04-12T08:39:10.348Z,1012.77
2019-04-12T08:40:10.415Z,1012.86
2019-04-12T08:41:10.611Z,1012.83
2019-04-12T08:42:10.351Z,1012.84
2019-04-12T08:43:10.441Z,1012.88
2019-04-12T08:44:10.301Z,1012.81
2019-04-12T08:45:10.243Z,1012.83
2019-04-12T08:46:10.363Z,1012.78
2019-04-12T08:47:10.213Z,1012.84
2019-04-12T08:48:10.236Z,1012.81
2019-04-12T08:49:10.206Z,1012.77
2019-04-12T08:50:10.162Z,1012.81
2019-04-12T08:51:21.728Z,1012.79
2019-04-12T08:52:10.138Z,1012.82
2019-04-12T08:53:10.118Z,1012.79
2019-04-12T08:54:10.240Z,1012.76
2019-04-12T08:55:10.092Z,1012.76
2019-04-12T08:56:10.121Z,1012.77
2019-04-12T08:57:10.048Z,1012.72
2019-04-12T08:58:11.265Z,1012.76
2019-04-12T08:59:10.007Z,1012.73
2019-04-12T09:00:10.062Z,1012.76
2019-04-12T09:01:09.986Z,1012.70
2019-04-12T09:02:10.043Z,1012.73
2019-04-12T09:03:10.018Z,1012.72
2019-04-12T09:04:09.983Z,1012.66
2019-04-12T09:05:09.925Z,1012.70
2019-04-12T09:06:09.924Z,1012.66
2019-04-12T09:07:09.889Z,1012.72
2019-04-12T09:08:09.916Z,1012.70
2019-04-12T09:09:09.978Z,1012.74
2019-04-12T09:10:09.915Z,1012.76
2019-04-12T09:11:09.888Z,1012.74
2019-04-12T09:12:09.868Z,1012.76
2019-04-12T09:13:09.795Z,1012.75
2019-04-12T09:14:09.807Z,1012.81
2019-04-12T09:15:09.822Z,1012.78
2019-04-12T09:16:09.795Z,1012.80
2019-04-12T09:17:09.730Z,1012.78
2019-04-12T09:18:09.714Z,1012.82
2019-04-12T09:19:09.696Z,1012.78
2019-04-12T09:20:09.740Z,1012.80
2019-04-12T09:21:09.746Z,1012.80
2019-04-12T09:22:09.729Z,1012.79
2019-04-12T09:23:09.699Z,1012.77
2019-04-12T09:24:09.654Z,1012.80
2019-04-12T09:25:09.564Z,1012.82
2019-04-12T09:26:09.589Z,1012.77
2019-04-12T09:27:09.623Z,1012.77
2019-04-12T09:28:10.049Z,1012.74
2019-04-12T09:29:09.575Z,1012.78
2019-04-12T09:30:09.510Z,1012.75
2019-04-12T09:31:09.479Z,1012.77
2019-04-12T09:32:09.485Z,1012.76
2019-04-12T09:33:09.477Z,1012.77
2019-04-12T09:34:16.750Z,1012.77
2019-04-12T09:35:09.389Z,1012.79
2019-04-12T09:36:09.400Z,1012.80
2019-04-12T09:37:09.441Z,1012.81
2019-04-12T09:38:09.345Z,1012.80
2019-04-12T09:39:09.320Z,1012.82
2019-04-12T09:40:09.304Z,1012.81
2019-04-12T09:41:09.278Z,1012.79
2019-04-12T09:42:09.299Z,1012.80
2019-04-12T09:43:09.254Z,1012.81
2019-04-12T09:44:09.234Z,1012.75
2019-04-12T09:45:09.214Z,1012.77
2019-04-12T09:46:09.202Z,1012.76
2019-04-12T09:47:09.248Z,1012.74
2019-04-12T09:48:09.245Z,1012.77
2019-04-12T09:49:09.142Z,1012.76
2019-04-12T09:50:09.130Z,1012.80
2019-04-12T09:51:09.121Z,1012.80
2019-04-12T09:52:09.102Z,1012.84
2019-04-12T09:53:09.111Z,1012.80
2019-04-12T09:54:09.067Z,1012.79
2019-04-12T09:55:09.201Z,1012.78
2019-04-12T09:56:09.032Z,1012.76
2019-04-12T09:57:09.005Z,1012.84
2019-04-12T09:58:09.015Z,1012.77
2019-04-12T09:59:09.006Z,1012.77
2019-04-12T10:00:08.974Z,1012.79
2019-04-12T10:01:12.020Z,1012.73
2019-04-12T10:02:13.931Z,1012.77
2019-04-12T10:03:08.900Z,1012.78
2019-04-12T10:04:08.889Z,1012.76
2019-04-12T10:05:08.987Z,1012.71
2019-04-12T10:06:08.853Z,1012.72
2019-04-12T10:07:08.835Z,1012.71
2019-04-12T10:08:09.501Z,1012.69
2019-04-12T10:09:08.821Z,1012.71
2019-04-12T10:10:08.790Z,1012.70
2019-04-12T10:11:08.769Z,1012.72
2019-04-12T10:12:08.752Z,1012.70
2019-04-12T10:13:08.792Z,1012.72
2019-04-12T10:14:08.719Z,1012.78
2019-04-12T10:15:08.688Z,1012.72
2019-04-12T10:16:11.631Z,1012.71
2019-04-12T10:17:08.665Z,1012.76
2019-04-12T10:18:08.646Z,1012.74
2019-04-12T10:19:08.677Z,1012.73
2019-04-12T10:20:08.618Z,1012.72
2019-04-12T10:21:08.596Z,1012.72
2019-04-12T10:22:09.078Z,1012.75
2019-04-12T10:23:08.587Z,1012.76
2019-04-12T10:24:08.601Z,1012.76
2019-04-12T10:25:08.530Z,1012.80
2019-04-12T10:26:08.518Z,1012.80
2019-04-12T10:27:08.495Z,1012.76
2019-04-12T10:28:08.487Z,1012.79
2019-04-12T10:29:08.459Z,1012.78
2019-04-12T10:30:08.467Z,1012.80
2019-04-12T10:31:08.461Z,1012.82
2019-04-12T10:32:08.411Z,1012.81
2019-04-12T10:33:08.437Z,1012.85
2019-04-12T10:34:08.370Z,1012.83
2019-04-12T10:35:08.403Z,1012.81
2019-04-12T10:36:08.340Z,1012.81
2019-04-12T10:37:08.324Z,1012.83
2019-04-12T10:38:08.953Z,1012.75
2019-04-12T10:39:08.290Z,1012.80
2019-04-12T10:40:10.819Z,1012.74
2019-04-12T10:41:08.263Z,1012.75
2019-04-12T10:42:08.239Z,1012.76
2019-04-12T10:43:08.226Z,1012.73
2019-04-12T10:44:08.199Z,1012.73
2019-04-12T10:45:08.239Z,1012.69
2019-04-12T10:46:08.171Z,1012.71
2019-04-12T10:47:08.567Z,1012.70
2019-04-12T10:48:08.142Z,1012.71
2019-04-12T10:49:08.118Z,1012.71
2019-04-12T10:50:08.159Z,1012.65
2019-04-12T10:51:08.108Z,1012.66
2019-04-12T10:52:08.074Z,1012.69
2019-04-12T10:53:08.051Z,1012.67
2019-04-12T10:54:08.038Z,1012.71
2019-04-12T10:55:08.069Z,1012.65
2019-04-12T10:56:08.047Z,1012.69
2019-04-12T10:57:08.016Z,1012.68
2019-04-12T10:58:07.961Z,1012.62
2019-04-12T10:59:07.960Z,1012.64
2019-04-12T11:00:07.932Z,1012.65
2019-04-12T11:01:07.911Z,1012.66
2019-04-12T11:02:07.894Z,1012.68
2019-04-12T11:03:07.890Z,1012.62
2019-04-12T11:04:07.858Z,1012.62
2019-04-12T11:05:07.851Z,1012.68
2019-04-12T11:06:07.832Z,1012.64
2019-04-12T11:07:07.864Z,1012.63
2019-04-12T11:08:07.796Z,1012.62
2019-04-12T11:09:07.771Z,1012.61
2019-04-12T11:10:07.751Z,1012.63
2019-04-12T11:11:07.797Z,1012.59
2019-04-12T11:12:07.728Z,1012.54
2019-04-12T11:13:07.692Z,1012.52
2019-04-12T11:14:07.687Z,1012.54
2019-04-12T11:15:20.286Z,1012.58
2019-04-12T11:16:07.692Z,1012.59
2019-04-12T11:17:07.649Z,1012.64
2019-04-12T11:18:07.608Z,1012.59
2019-04-12T11:19:07.740Z,1012.62
2019-04-12T11:20:07.617Z,1012.56
2019-04-12T11:21:07.562Z,1012.61
2019-04-12T11:22:07.556Z,1012.59
2019-04-12T11:23:07.527Z,1012.54
2019-04-12T11:24:07.513Z,1012.59
2019-04-12T11:25:07.490Z,1012.56
2019-04-12T11:26:07.468Z,1012.55
2019-04-12T11:27:07.458Z,1012.54
2019-04-12T11:28:07.437Z,1012.53
2019-04-12T11:29:16.725Z,1012.46
2019-04-12T11:30:07.415Z,1012.52
2019-04-12T11:31:07.382Z,1012.51
2019-04-12T11:32:07.375Z,1012.54
2019-04-12T11:33:07.401Z,1012.49
2019-04-12T11:34:07.342Z,1012.49
2019-04-12T11:35:10.146Z,1012.50
2019-04-12T11:36:07.299Z,1012.47
2019-04-12T11:37:07.290Z,1012.50
2019-04-12T11:38:07.290Z,1012.54
2019-04-12T11:39:07.247Z,1012.51
2019-04-12T11:40:07.235Z,1012.52
2019-04-12T11:41:07.217Z,1012.51
2019-04-12T11:42:07.245Z,1012.57
2019-04-12T11:43:07.196Z,1012.62
2019-04-12T11:44:07.173Z,1012.55
2019-04-12T11:45:07.197Z,1012.55
2019-04-12T11:46:07.129Z,1012.57
2019-04-12T11:47:07.119Z,1012.56
2019-04-12T11:48:07.189Z,1012.51
2019-04-12T11:49:07.075Z,1012.52
2019-04-12T11:50:07.057Z,1012.52
2019-04-12T11:51:07.042Z,1012.44
2019-04-12T11:52:07.028Z,1012.46
2019-04-12T11:53:07.032Z,1012.51
2019-04-12T11:54:06.998Z,1012.55
2019-04-12T11:55:07.074Z,1012.50
2019-04-12T11:56:06.968Z,1012.54
2019-04-12T11:57:06.944Z,1012.53
2019-04-12T11:58:06.931Z,1012.50
2019-04-12T11:59:06.940Z,1012.56
2019-04-12T12:00:06.895Z,1012.57
2019-04-12T12:01:06.921Z,1012.55
2019-04-12T12:02:06.876Z,1012.59
2019-04-12T12:03:06.874Z,1012.55
2019-04-12T12:04:06.910Z,1012.61
2019-04-12T12:05:06.817Z,1012.61
2019-04-12T12:06:06.805Z,1012.60
2019-04-12T12:07:06.779Z,1012.55